sensor_id;sensor_type;location;lat;lon;timestamp;pressure;altitude;pressure_sealevel;temperature;humidity
22688;BME280;11511;51.514;7.080;2024-02-26T00:01:34;99398.69;;;4.85;nan
22688;BME280;11511;51.514;7.080;2024-02-26T00:04:00;99399.59;;;4.84;nan
22688;BME280;11511;51.514;7.080;2024-02-26T00:06:27;99396.03;;;4.86;nan
22688;BME280;11511;51.514;7.080;2024-02-26T00:08:52;99394.38;;;4.84;nan
22688;BME280;11511;51.514;7.080;2024-02-26T00:11:17;99388.19;;;4.86;nan
22688;BME280;11511;51.514;7.080;2024-02-26T00:13:43;99389.97;;;4.86;nan
22688;BME280;11511;51.514;7.080;2024-02-26T00:16:08;99387.34;;;4.86;nan
22688;BME280;11511;51.514;7.080;2024-02-26T00:18:33;99389.88;;;4.89;nan
22688;BME280;11511;51.514;7.080;2024-02-26T00:20:58;99393.41;;;4.86;nan
22688;BME280;11511;51.514;7.080;2024-02-26T00:23:24;99394.41;;;4.82;nan
22688;BME280;11511;51.514;7.080;2024-02-26T00:25:49;99397.13;;;4.79;nan
22688;BME280;11511;51.514;7.080;2024-02-26T00:28:14;99396.47;;;4.72;nan
22688;BME280;11511;51.514;7.080;2024-02-26T00:30:40;99404.28;;;4.72;nan
22688;BME280;11511;51.514;7.080;2024-02-26T00:33:05;99398.41;;;4.66;nan
22688;BME280;11511;51.514;7.080;2024-02-26T00:35:30;99398.41;;;4.66;nan
22688;BME280;11511;51.514;7.080;2024-02-26T00:37:55;99402.91;;;4.62;nan
22688;BME280;11511;51.514;7.080;2024-02-26T00:40:21;99401.13;;;4.63;nan
22688;BME280;11511;51.514;7.080;2024-02-26T00:42:46;99398.41;;;4.66;nan
22688;BME280;11511;51.514;7.080;2024-02-26T00:45:12;99393.38;;;4.61;nan
22688;BME280;11511;51.514;7.080;2024-02-26T00:47:38;99386.44;;;4.60;nan
22688;BME280;11511;51.514;7.080;2024-02-26T00:50:06;99384.63;;;4.62;nan
22688;BME280;11511;51.514;7.080;2024-02-26T00:52:32;99391.59;;;4.62;nan
22688;BME280;11511;51.514;7.080;2024-02-26T00:54:57;99394.03;;;4.66;nan
22688;BME280;11511;51.514;7.080;2024-02-26T00:57:22;99394.81;;;4.70;nan
22688;BME280;11511;51.514;7.080;2024-02-26T00:59:47;99393.28;;;4.64;nan
22688;BME280;11511;51.514;7.080;2024-02-26T01:02:13;99393.28;;;4.64;nan
22688;BME280;11511;51.514;7.080;2024-02-26T01:04:38;99388.06;;;4.64;nan
22688;BME280;11511;51.514;7.080;2024-02-26T01:07:03;99395.75;;;4.67;nan
22688;BME280;11511;51.514;7.080;2024-02-26T01:09:29;99386.34;;;4.63;nan
22688;BME280;11511;51.514;7.080;2024-02-26T01:11:54;99388.09;;;4.63;nan
22688;BME280;11511;51.514;7.080;2024-02-26T01:14:19;99380.22;;;4.64;nan
22688;BME280;11511;51.514;7.080;2024-02-26T01:16:44;99370.69;;;4.63;nan
22688;BME280;11511;51.514;7.080;2024-02-26T01:19:10;99369.94;;;4.60;nan
22688;BME280;11511;51.514;7.080;2024-02-26T01:21:35;99376.69;;;4.65;nan
22688;BME280;11511;51.514;7.080;2024-02-26T01:24:00;99374.78;;;4.70;nan
22688;BME280;11511;51.514;7.080;2024-02-26T01:26:25;99386.31;;;4.65;nan
22688;BME280;11511;51.514;7.080;2024-02-26T01:28:51;99380.22;;;4.64;nan
22688;BME280;11511;51.514;7.080;2024-02-26T01:31:16;99395.59;;;4.72;nan
22688;BME280;11511;51.514;7.080;2024-02-26T01:33:41;99396.47;;;4.72;nan
22688;BME280;11511;51.514;7.080;2024-02-26T01:36:06;99392.81;;;4.78;nan
22688;BME280;11511;51.514;7.080;2024-02-26T01:38:31;99391.25;;;4.72;nan
22688;BME280;11511;51.514;7.080;2024-02-26T01:40:57;99394.50;;;4.79;nan
22688;BME280;11511;51.514;7.080;2024-02-26T01:43:22;99393.66;;;4.79;nan
22688;BME280;11511;51.514;7.080;2024-02-26T01:45:47;99393.66;;;4.79;nan
22688;BME280;11511;51.514;7.080;2024-02-26T01:48:13;99393.63;;;4.80;nan
22688;BME280;11511;51.514;7.080;2024-02-26T01:50:38;99400.50;;;4.83;nan
22688;BME280;11511;51.514;7.080;2024-02-26T01:53:05;99389.28;;;4.79;nan
22688;BME280;11511;51.514;7.080;2024-02-26T01:55:31;99386.69;;;4.79;nan
22688;BME280;11511;51.514;7.080;2024-02-26T01:57:56;99384.94;;;4.80;nan
22688;BME280;11511;51.514;7.080;2024-02-26T02:00:22;99386.78;;;4.76;nan
22688;BME280;11511;51.514;7.080;2024-02-26T02:02:48;99387.53;;;4.80;nan
22688;BME280;11511;51.514;7.080;2024-02-26T02:05:14;99390.16;;;4.80;nan
22688;BME280;11511;51.514;7.080;2024-02-26T02:07:41;99390.91;;;4.83;nan
22688;BME280;11511;51.514;7.080;2024-02-26T02:10:06;99381.38;;;4.82;nan
22688;BME280;11511;51.514;7.080;2024-02-26T02:12:32;99384.03;;;4.81;nan
22688;BME280;11511;51.514;7.080;2024-02-26T02:14:59;99396.97;;;4.84;nan
22688;BME280;11511;51.514;7.080;2024-02-26T02:17:24;99397.88;;;4.83;nan
22688;BME280;11511;51.514;7.080;2024-02-26T02:19:50;99390.97;;;4.82;nan
22688;BME280;11511;51.514;7.080;2024-02-26T02:22:15;99396.94;;;4.85;nan
22688;BME280;11511;51.514;7.080;2024-02-26T02:24:40;99401.34;;;4.83;nan
22688;BME280;11511;51.514;7.080;2024-02-26T02:27:05;99393.56;;;4.82;nan
22688;BME280;11511;51.514;7.080;2024-02-26T02:29:31;99389.34;;;4.78;nan
22688;BME280;11511;51.514;7.080;2024-02-26T02:31:57;99400.72;;;4.75;nan
22688;BME280;11511;51.514;7.080;2024-02-26T02:34:23;99395.41;;;4.78;nan
22688;BME280;11511;51.514;7.080;2024-02-26T02:36:52;99399.69;;;4.81;nan
22688;BME280;11511;51.514;7.080;2024-02-26T02:39:18;99398.81;;;4.80;nan
22688;BME280;11511;51.514;7.080;2024-02-26T02:41:44;99409.16;;;4.83;nan
22688;BME280;11511;51.514;7.080;2024-02-26T02:44:09;99400.44;;;4.84;nan
22688;BME280;11511;51.514;7.080;2024-02-26T02:46:35;99416.03;;;4.86;nan
22688;BME280;11511;51.514;7.080;2024-02-26T02:49:01;99413.44;;;4.86;nan
22688;BME280;11511;51.514;7.080;2024-02-26T02:51:26;99415.03;;;4.90;nan
22688;BME280;11511;51.514;7.080;2024-02-26T02:53:52;99411.59;;;4.89;nan
22688;BME280;11511;51.514;7.080;2024-02-26T02:56:18;99406.31;;;4.91;nan
22688;BME280;11511;51.514;7.080;2024-02-26T02:58:44;99411.72;;;4.85;nan
22688;BME280;11511;51.514;7.080;2024-02-26T03:01:10;99406.56;;;4.83;nan
22688;BME280;11511;51.514;7.080;2024-02-26T03:03:36;99404.84;;;4.82;nan
22688;BME280;11511;51.514;7.080;2024-02-26T03:06:03;99403.34;;;4.75;nan
22688;BME280;11511;51.514;7.080;2024-02-26T03:08:28;99405.94;;;4.75;nan
22688;BME280;11511;51.514;7.080;2024-02-26T03:10:58;99411.13;;;4.76;nan
22688;BME280;11511;51.514;7.080;2024-02-26T03:13:23;99417.13;;;4.79;nan
22688;BME280;11511;51.514;7.080;2024-02-26T03:15:49;99421.44;;;4.80;nan
22688;BME280;11511;51.514;7.080;2024-02-26T03:18:15;99423.16;;;4.81;nan
22688;BME280;11511;51.514;7.080;2024-02-26T03:20:41;99417.91;;;4.82;nan
22688;BME280;11511;51.514;7.080;2024-02-26T03:23:07;99425.78;;;4.81;nan
22688;BME280;11511;51.514;7.080;2024-02-26T03:25:35;99419.69;;;4.80;nan
22688;BME280;11511;51.514;7.080;2024-02-26T03:28:00;99421.44;;;4.80;nan
22688;BME280;11511;51.514;7.080;2024-02-26T03:30:26;99429.22;;;4.81;nan
22688;BME280;11511;51.514;7.080;2024-02-26T03:32:52;99425.91;;;4.76;nan
22688;BME280;11511;51.514;7.080;2024-02-26T03:35:18;99435.63;;;4.71;nan
22688;BME280;11511;51.514;7.080;2024-02-26T03:37:45;99427.03;;;4.67;nan
22688;BME280;11511;51.514;7.080;2024-02-26T03:40:11;99427.91;;;4.68;nan
22688;BME280;11511;51.514;7.080;2024-02-26T03:42:39;99423.75;;;4.62;nan
22688;BME280;11511;51.514;7.080;2024-02-26T03:45:06;99422.91;;;4.62;nan
22688;BME280;11511;51.514;7.080;2024-02-26T03:47:31;99425.66;;;4.57;nan
22688;BME280;11511;51.514;7.080;2024-02-26T03:49:57;99429.25;;;4.53;nan
22688;BME280;11511;51.514;7.080;2024-02-26T03:52:24;99427.81;;;4.43;nan
22688;BME280;11511;51.514;7.080;2024-02-26T03:54:50;99416.88;;;4.32;nan
22688;BME280;11511;51.514;7.080;2024-02-26T03:57:15;99409.94;;;4.31;nan
22688;BME280;11511;51.514;7.080;2024-02-26T03:59:41;99412.78;;;4.23;nan
22688;BME280;11511;51.514;7.080;2024-02-26T04:02:07;99412.88;;;4.20;nan
22688;BME280;11511;51.514;7.080;2024-02-26T04:04:35;99406.94;;;4.15;nan
22688;BME280;11511;51.514;7.080;2024-02-26T04:07:01;99401.03;;;4.10;nan
22688;BME280;11511;51.514;7.080;2024-02-26T04:09:27;99405.25;;;4.13;nan
22688;BME280;11511;51.514;7.080;2024-02-26T04:11:52;99407.13;;;4.09;nan
22688;BME280;11511;51.514;7.080;2024-02-26T04:14:20;99415.84;;;4.08;nan
22688;BME280;11511;51.514;7.080;2024-02-26T04:16:45;99414.06;;;4.10;nan
22688;BME280;11511;51.514;7.080;2024-02-26T04:19:13;99406.31;;;4.07;nan
22688;BME280;11511;51.514;7.080;2024-02-26T04:21:40;99403.81;;;4.04;nan
22688;BME280;11511;51.514;7.080;2024-02-26T04:24:06;99411.66;;;4.02;nan
22688;BME280;11511;51.514;7.080;2024-02-26T04:26:32;99410.84;;;4.00;nan
22688;BME280;11511;51.514;7.080;2024-02-26T04:28:59;99413.53;;;3.97;nan
22688;BME280;11511;51.514;7.080;2024-02-26T04:31:24;99412.66;;;3.98;nan
22688;BME280;11511;51.514;7.080;2024-02-26T04:33:51;99396.28;;;3.93;nan
22688;BME280;11511;51.514;7.080;2024-02-26T04:36:17;99405.81;;;3.94;nan
22688;BME280;11511;51.514;7.080;2024-02-26T04:38:43;99398.94;;;3.92;nan
22688;BME280;11511;51.514;7.080;2024-02-26T04:41:09;99403.38;;;3.88;nan
22688;BME280;11511;51.514;7.080;2024-02-26T04:43:36;99396.34;;;3.92;nan
22688;BME280;11511;51.514;7.080;2024-02-26T04:46:10;99402.44;;;3.91;nan
22688;BME280;11511;51.514;7.080;2024-02-26T04:48:36;99420.59;;;3.94;nan
22688;BME280;11511;51.514;7.080;2024-02-26T04:51:01;99424.22;;;3.88;nan
22688;BME280;11511;51.514;7.080;2024-02-26T04:53:27;99414.69;;;3.87;nan
22688;BME280;11511;51.514;7.080;2024-02-26T04:55:53;99431.19;;;3.88;nan
22688;BME280;11511;51.514;7.080;2024-02-26T04:58:18;99440.63;;;3.92;nan
22688;BME280;11511;51.514;7.080;2024-02-26T05:00:44;99444.16;;;3.89;nan
22688;BME280;11511;51.514;7.080;2024-02-26T05:03:10;99444.25;;;3.86;nan
22688;BME280;11511;51.514;7.080;2024-02-26T05:05:44;99446.88;;;3.85;nan
22688;BME280;11511;51.514;7.080;2024-02-26T05:08:10;99448.53;;;3.89;nan
22688;BME280;11511;51.514;7.080;2024-02-26T05:10:37;99453.72;;;3.89;nan
22688;BME280;11511;51.514;7.080;2024-02-26T05:13:06;99453.84;;;3.84;nan
22688;BME280;11511;51.514;7.080;2024-02-26T05:15:35;99446.88;;;3.85;nan
22688;BME280;11511;51.514;7.080;2024-02-26T05:18:02;99455.97;;;4.02;nan
22688;BME280;11511;51.514;7.080;2024-02-26T05:20:31;99455.09;;;4.02;nan
22688;BME280;11511;51.514;7.080;2024-02-26T05:23:00;99462.88;;;4.03;nan
22688;BME280;11511;51.514;7.080;2024-02-26T05:25:26;99458.72;;;3.96;nan
22688;BME280;11511;51.514;7.080;2024-02-26T05:27:52;99464.88;;;3.94;nan
22688;BME280;11511;51.514;7.080;2024-02-26T05:30:17;99462.34;;;3.91;nan
22688;BME280;11511;51.514;7.080;2024-02-26T05:32:43;99460.72;;;3.87;nan
22688;BME280;11511;51.514;7.080;2024-02-26T05:35:08;99465.78;;;3.93;nan
22688;BME280;11511;51.514;7.080;2024-02-26T05:37:34;99474.59;;;3.87;nan
22688;BME280;11511;51.514;7.080;2024-02-26T05:40:00;99461.59;;;3.87;nan
22688;BME280;11511;51.514;7.080;2024-02-26T05:42:26;99469.03;;;4.01;nan
22688;BME280;11511;51.514;7.080;2024-02-26T05:44:52;99479.28;;;4.07;nan
22688;BME280;11511;51.514;7.080;2024-02-26T05:47:17;99478.47;;;4.05;nan
22688;BME280;11511;51.514;7.080;2024-02-26T05:49:44;99475.75;;;4.10;nan
22688;BME280;11511;51.514;7.080;2024-02-26T05:52:09;99486.25;;;4.06;nan
22688;BME280;11511;51.514;7.080;2024-02-26T05:54:35;99480.63;;;3.89;nan
22688;BME280;11511;51.514;7.080;2024-02-26T05:57:01;99488.38;;;3.92;nan
22688;BME280;11511;51.514;7.080;2024-02-26T05:59:27;99489.22;;;3.93;nan
22688;BME280;11511;51.514;7.080;2024-02-26T06:01:52;99485.75;;;3.92;nan
22688;BME280;11511;51.514;7.080;2024-02-26T06:04:18;99490.25;;;3.87;nan
22688;BME280;11511;51.514;7.080;2024-02-26T06:06:44;99498.06;;;3.87;nan
22688;BME280;11511;51.514;7.080;2024-02-26T06:09:13;99495.38;;;3.90;nan
22688;BME280;11511;51.514;7.080;2024-02-26T06:11:39;99504.03;;;3.91;nan
22688;BME280;11511;51.514;7.080;2024-02-26T06:14:07;99501.34;;;3.94;nan
22688;BME280;11511;51.514;7.080;2024-02-26T06:16:34;99503.09;;;3.93;nan
22688;BME280;11511;51.514;7.080;2024-02-26T06:19:00;99502.31;;;3.90;nan
22688;BME280;11511;51.514;7.080;2024-02-26T06:21:26;99509.09;;;3.97;nan
22688;BME280;11511;51.514;7.080;2024-02-26T06:23:51;99507.41;;;3.94;nan
22688;BME280;11511;51.514;7.080;2024-02-26T06:26:17;99516.03;;;3.96;nan
22688;BME280;11511;51.514;7.080;2024-02-26T06:28:43;99517.56;;;4.05;nan
22688;BME280;11511;51.514;7.080;2024-02-26T06:31:09;99515.84;;;4.04;nan
22688;BME280;11511;51.514;7.080;2024-02-26T06:33:35;99515.75;;;4.07;nan
22688;BME280;11511;51.514;7.080;2024-02-26T06:36:00;99520.13;;;4.06;nan
22688;BME280;11511;51.514;7.080;2024-02-26T06:38:27;99518.44;;;4.04;nan
22688;BME280;11511;51.514;7.080;2024-02-26T06:41:00;99524.44;;;4.07;nan
22688;BME280;11511;51.514;7.080;2024-02-26T06:43:27;99522.66;;;4.10;nan
22688;BME280;11511;51.514;7.080;2024-02-26T06:45:52;99529.53;;;4.11;nan
22688;BME280;11511;51.514;7.080;2024-02-26T06:48:18;99519.00;;;4.15;nan
22688;BME280;11511;51.514;7.080;2024-02-26T06:50:44;99527.66;;;4.16;nan
22688;BME280;11511;51.514;7.080;2024-02-26T06:53:10;99527.66;;;4.16;nan
22688;BME280;11511;51.514;7.080;2024-02-26T06:55:36;99525.13;;;4.13;nan
22688;BME280;11511;51.514;7.080;2024-02-26T06:58:05;99516.56;;;4.09;nan
22688;BME280;11511;51.514;7.080;2024-02-26T07:00:31;99514.81;;;4.10;nan
22688;BME280;11511;51.514;7.080;2024-02-26T07:02:56;99523.63;;;4.05;nan
22688;BME280;11511;51.514;7.080;2024-02-26T07:05:22;99531.31;;;4.10;nan
22688;BME280;11511;51.514;7.080;2024-02-26T07:07:47;99529.59;;;4.09;nan
22688;BME280;11511;51.514;7.080;2024-02-26T07:10:13;99534.00;;;4.07;nan
22688;BME280;11511;51.514;7.080;2024-02-26T07:12:42;99534.81;;;4.09;nan
22688;BME280;11511;51.514;7.080;2024-02-26T07:15:09;99541.53;;;4.16;nan
22688;BME280;11511;51.514;7.080;2024-02-26T07:17:35;99546.84;;;4.13;nan
22688;BME280;11511;51.514;7.080;2024-02-26T07:20:01;99544.13;;;4.18;nan
22688;BME280;11511;51.514;7.080;2024-02-26T07:22:29;99552.00;;;4.15;nan
22688;BME280;11511;51.514;7.080;2024-02-26T07:24:58;99564.91;;;4.19;nan
22688;BME280;11511;51.514;7.080;2024-02-26T07:27:24;99564.03;;;4.20;nan
22688;BME280;11511;51.514;7.080;2024-02-26T07:29:50;99562.94;;;4.29;nan
22688;BME280;11511;51.514;7.080;2024-02-26T07:32:16;99571.53;;;4.32;nan
22688;BME280;11511;51.514;7.080;2024-02-26T07:34:41;99567.28;;;4.28;nan
22688;BME280;11511;51.514;7.080;2024-02-26T07:37:07;99574.88;;;4.37;nan
22688;BME280;11511;51.514;7.080;2024-02-26T07:39:33;99564.56;;;4.33;nan
22688;BME280;11511;51.514;7.080;2024-02-26T07:41:59;99572.25;;;4.37;nan
22688;BME280;11511;51.514;7.080;2024-02-26T07:44:25;99576.38;;;4.45;nan
22688;BME280;11511;51.514;7.080;2024-02-26T07:46:51;99580.78;;;4.42;nan
22688;BME280;11511;51.514;7.080;2024-02-26T07:49:16;99578.72;;;4.54;nan
22688;BME280;11511;51.514;7.080;2024-02-26T07:51:42;99578.97;;;4.45;nan
22688;BME280;11511;51.514;7.080;2024-02-26T07:54:07;99584.97;;;4.48;nan
22688;BME280;11511;51.514;7.080;2024-02-26T07:56:33;99585.09;;;4.43;nan
22688;BME280;11511;51.514;7.080;2024-02-26T07:58:59;99597.16;;;4.48;nan
22688;BME280;11511;51.514;7.080;2024-02-26T08:01:25;99596.22;;;4.50;nan
22688;BME280;11511;51.514;7.080;2024-02-26T08:03:52;99595.41;;;4.48;nan
22688;BME280;11511;51.514;7.080;2024-02-26T08:06:18;99593.56;;;4.52;nan
22688;BME280;11511;51.514;7.080;2024-02-26T08:08:44;99591.94;;;4.48;nan
22688;BME280;11511;51.514;7.080;2024-02-26T08:11:10;99601.47;;;4.49;nan
22688;BME280;11511;51.514;7.080;2024-02-26T08:13:35;99592.84;;;4.47;nan
22688;BME280;11511;51.514;7.080;2024-02-26T08:16:05;99605.75;;;4.51;nan
22688;BME280;11511;51.514;7.080;2024-02-26T08:18:33;99603.97;;;4.53;nan
22688;BME280;11511;51.514;7.080;2024-02-26T08:21:00;99611.97;;;4.46;nan
22688;BME280;11511;51.514;7.080;2024-02-26T08:23:26;99612.63;;;4.54;nan
22688;BME280;11511;51.514;7.080;2024-02-26T08:25:52;99608.22;;;4.56;nan
22688;BME280;11511;51.514;7.080;2024-02-26T08:28:18;99607.53;;;4.49;nan
22688;BME280;11511;51.514;7.080;2024-02-26T08:30:43;99605.06;;;4.45;nan
22688;BME280;11511;51.514;7.080;2024-02-26T08:33:09;99615.38;;;4.49;nan
22688;BME280;11511;51.514;7.080;2024-02-26T08:35:35;99613.69;;;4.47;nan
22688;BME280;11511;51.514;7.080;2024-02-26T08:38:00;99617.88;;;4.52;nan
22688;BME280;11511;51.514;7.080;2024-02-26T08:40:26;99622.94;;;4.58;nan
22688;BME280;11511;51.514;7.080;2024-02-26T08:42:52;99622.03;;;4.59;nan
22688;BME280;11511;51.514;7.080;2024-02-26T08:45:18;99622.84;;;4.61;nan
22688;BME280;11511;51.514;7.080;2024-02-26T08:47:46;99627.22;;;4.61;nan
22688;BME280;11511;51.514;7.080;2024-02-26T08:50:13;99626.31;;;4.62;nan
22688;BME280;11511;51.514;7.080;2024-02-26T08:52:39;99629.16;;;4.84;nan
22688;BME280;11511;51.514;7.080;2024-02-26T08:55:08;99632.84;;;4.76;nan
22688;BME280;11511;51.514;7.080;2024-02-26T08:57:34;99628.56;;;4.74;nan
22688;BME280;11511;51.514;7.080;2024-02-26T09:00:00;99620.44;;;4.85;nan
22688;BME280;11511;51.514;7.080;2024-02-26T09:02:26;99630.66;;;4.92;nan
22688;BME280;11511;51.514;7.080;2024-02-26T09:04:52;99626.69;;;4.79;nan
22688;BME280;11511;51.514;7.080;2024-02-26T09:07:20;99628.34;;;4.82;nan
22688;BME280;11511;51.514;7.080;2024-02-26T09:09:46;99628.41;;;4.80;nan
22688;BME280;11511;51.514;7.080;2024-02-26T09:12:11;99628.28;;;4.85;nan
22688;BME280;11511;51.514;7.080;2024-02-26T09:14:38;99632.63;;;4.84;nan
22688;BME280;11511;51.514;7.080;2024-02-26T09:17:06;99646.41;;;4.89;nan
22688;BME280;11511;51.514;7.080;2024-02-26T09:19:32;99648.25;;;4.86;nan
22688;BME280;11511;51.514;7.080;2024-02-26T09:21:58;99651.63;;;4.89;nan
22688;BME280;11511;51.514;7.080;2024-02-26T09:24:24;99658.69;;;4.86;nan
22688;BME280;11511;51.514;7.080;2024-02-26T09:26:49;99657.00;;;4.83;nan
22688;BME280;11511;51.514;7.080;2024-02-26T09:29:15;99656.03;;;4.87;nan
22688;BME280;11511;51.514;7.080;2024-02-26T09:31:41;99656.84;;;4.89;nan
22688;BME280;11511;51.514;7.080;2024-02-26T09:34:07;99661.25;;;4.87;nan
22688;BME280;11511;51.514;7.080;2024-02-26T09:36:33;99656.97;;;4.85;nan
22688;BME280;11511;51.514;7.080;2024-02-26T09:38:59;99655.94;;;4.90;nan
22688;BME280;11511;51.514;7.080;2024-02-26T09:41:25;99667.09;;;4.95;nan
22688;BME280;11511;51.514;7.080;2024-02-26T09:43:53;99660.91;;;4.98;nan
22688;BME280;11511;51.514;7.080;2024-02-26T09:46:21;99668.72;;;4.99;nan
22688;BME280;11511;51.514;7.080;2024-02-26T09:48:47;99672.09;;;5.03;nan
22688;BME280;11511;51.514;7.080;2024-02-26T09:51:14;99672.09;;;5.03;nan
22688;BME280;11511;51.514;7.080;2024-02-26T09:53:40;99671.16;;;5.05;nan
22688;BME280;11511;51.514;7.080;2024-02-26T09:56:08;99681.03;;;4.94;nan
22688;BME280;11511;51.514;7.080;2024-02-26T09:58:33;99683.25;;;5.08;nan
22688;BME280;11511;51.514;7.080;2024-02-26T10:01:00;99678.97;;;5.05;nan
22688;BME280;11511;51.514;7.080;2024-02-26T10:03:28;99689.28;;;5.10;nan
22688;BME280;11511;51.514;7.080;2024-02-26T10:05:56;99689.16;;;5.15;nan
22688;BME280;11511;51.514;7.080;2024-02-26T10:08:23;99687.41;;;5.15;nan
22688;BME280;11511;51.514;7.080;2024-02-26T10:10:49;99692.50;;;5.20;nan
22688;BME280;11511;51.514;7.080;2024-02-26T10:13:15;99692.28;;;5.26;nan
22688;BME280;11511;51.514;7.080;2024-02-26T10:15:41;99691.34;;;5.28;nan
22688;BME280;11511;51.514;7.080;2024-02-26T10:18:07;99691.31;;;5.30;nan
22688;BME280;11511;51.514;7.080;2024-02-26T10:20:32;99696.47;;;5.31;nan
22688;BME280;11511;51.514;7.080;2024-02-26T10:22:58;99700.91;;;5.29;nan
22688;BME280;11511;51.514;7.080;2024-02-26T10:25:24;99701.69;;;5.31;nan
22688;BME280;11511;51.514;7.080;2024-02-26T10:27:50;99703.38;;;5.34;nan
22688;BME280;11511;51.514;7.080;2024-02-26T10:30:16;99703.97;;;5.43;nan
22688;BME280;11511;51.514;7.080;2024-02-26T10:32:43;99704.78;;;5.16;nan
22688;BME280;11511;51.514;7.080;2024-02-26T10:35:09;99705.91;;;5.37;nan
22688;BME280;11511;51.514;7.080;2024-02-26T10:37:34;99711.13;;;5.37;nan
22688;BME280;11511;51.514;7.080;2024-02-26T10:39:59;99719.72;;;5.40;nan
22688;BME280;11511;51.514;7.080;2024-02-26T10:42:25;99722.22;;;5.73;nan
22688;BME280;11511;51.514;7.080;2024-02-26T10:44:50;99720.75;;;5.92;nan
22688;BME280;11511;51.514;7.080;2024-02-26T10:47:16;99728.09;;;5.79;nan
22688;BME280;11511;51.514;7.080;2024-02-26T10:49:44;99752.22;;;5.60;nan
22688;BME280;11511;51.514;7.080;2024-02-26T10:52:10;99757.13;;;6.00;nan
22688;BME280;11511;51.514;7.080;2024-02-26T10:54:36;99759.97;;;5.92;nan
22688;BME280;11511;51.514;7.080;2024-02-26T10:57:04;99756.41;;;5.65;nan
22688;BME280;11511;51.514;7.080;2024-02-26T10:59:30;99766.63;;;5.73;nan
22688;BME280;11511;51.514;7.080;2024-02-26T11:01:57;99756.50;;;5.92;nan
22688;BME280;11511;51.514;7.080;2024-02-26T11:04:23;99757.63;;;5.82;nan
22688;BME280;11511;51.514;7.080;2024-02-26T11:06:50;99754.22;;;5.79;nan
22688;BME280;11511;51.514;7.080;2024-02-26T11:09:15;99766.13;;;5.90;nan
22688;BME280;11511;51.514;7.080;2024-02-26T11:11:41;99769.34;;;5.99;nan
22688;BME280;11511;51.514;7.080;2024-02-26T11:14:08;99755.44;;;5.97;nan
22688;BME280;11511;51.514;7.080;2024-02-26T11:16:34;99768.94;;;5.82;nan
22688;BME280;11511;51.514;7.080;2024-02-26T11:19:00;99765.56;;;5.78;nan
22688;BME280;11511;51.514;7.080;2024-02-26T11:21:27;99766.81;;;5.67;nan
22688;BME280;11511;51.514;7.080;2024-02-26T11:24:05;99772.38;;;5.84;nan
22688;BME280;11511;51.514;7.080;2024-02-26T11:26:32;99773.97;;;5.90;nan
22688;BME280;11511;51.514;7.080;2024-02-26T11:28:58;99764.06;;;6.01;nan
22688;BME280;11511;51.514;7.080;2024-02-26T11:31:24;99763.66;;;6.13;nan
22688;BME280;11511;51.514;7.080;2024-02-26T11:33:52;99768.03;;;6.13;nan
22688;BME280;11511;51.514;7.080;2024-02-26T11:36:17;99763.75;;;6.10;nan
22688;BME280;11511;51.514;7.080;2024-02-26T11:38:43;99767.47;;;6.29;nan
22688;BME280;11511;51.514;7.080;2024-02-26T11:41:09;99767.13;;;6.40;nan
22688;BME280;11511;51.514;7.080;2024-02-26T11:43:53;99776.41;;;6.50;nan
22688;BME280;11511;51.514;7.080;2024-02-26T11:46:25;99784.31;;;6.73;nan
22688;BME280;11511;51.514;7.080;2024-02-26T11:48:50;99775.41;;;6.79;nan
22688;BME280;11511;51.514;7.080;2024-02-26T11:51:15;99771.88;;;7.05;nan
22688;BME280;11511;51.514;7.080;2024-02-26T11:53:47;99764.84;;;7.07;nan
22688;BME280;11511;51.514;7.080;2024-02-26T11:59:01;99779.50;;;7.36;nan
22688;BME280;11511;51.514;7.080;2024-02-26T12:01:37;99772.97;;;7.46;nan
22688;BME280;11511;51.514;7.080;2024-02-26T12:04:04;99781.75;;;7.22;nan
22688;BME280;11511;51.514;7.080;2024-02-26T12:06:29;99780.47;;;7.33;nan
22688;BME280;11511;51.514;7.080;2024-02-26T12:08:55;99780.53;;;7.07;nan
22688;BME280;11511;51.514;7.080;2024-02-26T12:11:21;99780.91;;;6.96;nan
22688;BME280;11511;51.514;7.080;2024-02-26T12:13:49;99785.72;;;6.84;nan
22688;BME280;11511;51.514;7.080;2024-02-26T12:16:34;99781.16;;;7.13;nan
22688;BME280;11511;51.514;7.080;2024-02-26T12:18:59;99777.63;;;7.14;nan
22688;BME280;11511;51.514;7.080;2024-02-26T12:21:25;99782.69;;;7.19;nan
22688;BME280;11511;51.514;7.080;2024-02-26T12:23:50;99780.91;;;7.44;nan
22688;BME280;11511;51.514;7.080;2024-02-26T12:26:15;99796.13;;;7.35;nan
22688;BME280;11511;51.514;7.080;2024-02-26T12:28:40;99793.78;;;7.02;nan
22688;BME280;11511;51.514;7.080;2024-02-26T12:31:06;99809.81;;;6.93;nan
22688;BME280;11511;51.514;7.080;2024-02-26T12:33:31;99807.56;;;6.83;nan
22688;BME280;11511;51.514;7.080;2024-02-26T12:35:57;99808.50;;;7.06;nan
22688;BME280;11511;51.514;7.080;2024-02-26T12:38:22;99804.09;;;7.07;nan
22688;BME280;11511;51.514;7.080;2024-02-26T12:40:47;99817.31;;;7.04;nan
22688;BME280;11511;51.514;7.080;2024-02-26T12:43:14;99819.09;;;7.27;nan
22688;BME280;11511;51.514;7.080;2024-02-26T12:45:40;99815.53;;;6.79;nan
22688;BME280;11511;51.514;7.080;2024-02-26T12:48:06;99809.25;;;7.10;nan
22688;BME280;11511;51.514;7.080;2024-02-26T12:50:31;99810.81;;;6.89;nan
22688;BME280;11511;51.514;7.080;2024-02-26T12:52:57;99812.81;;;7.07;nan
22688;BME280;11511;51.514;7.080;2024-02-26T12:55:23;99816.81;;;7.18;nan
22688;BME280;11511;51.514;7.080;2024-02-26T12:57:48;99832.84;;;7.08;nan
22688;BME280;11511;51.514;7.080;2024-02-26T13:00:18;99825.00;;;6.84;nan
22688;BME280;11511;51.514;7.080;2024-02-26T13:02:47;99833.72;;;7.09;nan
22688;BME280;11511;51.514;7.080;2024-02-26T13:05:13;99837.22;;;6.83;nan
22688;BME280;11511;51.514;7.080;2024-02-26T13:07:42;99846.16;;;7.02;nan
22688;BME280;11511;51.514;7.080;2024-02-26T13:10:08;99850.69;;;6.97;nan
22688;BME280;11511;51.514;7.080;2024-02-26T13:12:34;99854.56;;;6.86;nan
22688;BME280;11511;51.514;7.080;2024-02-26T13:14:59;99854.31;;;6.93;nan
22688;BME280;11511;51.514;7.080;2024-02-26T13:17:25;99862.22;;;7.17;nan
22688;BME280;11511;51.514;7.080;2024-02-26T13:19:53;99863.78;;;7.22;nan
22688;BME280;11511;51.514;7.080;2024-02-26T13:22:20;99867.06;;;7.04;nan
22688;BME280;11511;51.514;7.080;2024-02-26T13:24:45;99865.41;;;7.26;nan
22688;BME280;11511;51.514;7.080;2024-02-26T13:27:22;99869.78;;;7.01;nan
22688;BME280;11511;51.514;7.080;2024-02-26T13:29:47;99877.09;;;7.16;nan